createdAt,value
2022-10-29T00:01:04.747Z,98813.71
2022-10-29T00:03:40.244Z,98813.17
2022-10-29T00:06:12.021Z,98816.80
2022-10-29T00:08:41.324Z,98813.84
2022-10-29T00:11:13.148Z,98813.64
2022-10-29T00:13:41.442Z,98814.70
2022-10-29T00:16:21.018Z,98813.89
2022-10-29T00:18:49.104Z,98818.05
2022-10-29T00:21:20.600Z,98820.58
2022-10-29T00:23:48.728Z,98822.17
2022-10-29T00:26:18.840Z,98821.14
2022-10-29T00:28:47.319Z,98822.33
2022-10-29T00:31:18.989Z,98824.73
2022-10-29T00:33:47.079Z,98827.27
2022-10-29T00:36:22.241Z,98830.73
2022-10-29T00:38:50.604Z,98828.08
2022-10-29T00:41:28.214Z,98823.71
2022-10-29T00:44:14.439Z,98821.28
2022-10-29T00:46:45.947Z,98819.04
2022-10-29T00:49:16.939Z,98820.43
2022-10-29T00:51:46.634Z,98814.85
2022-10-29T00:54:16.441Z,98814.34
2022-10-29T00:56:51.008Z,98810.15
2022-10-29T00:59:19.117Z,98808.95
2022-10-29T01:01:49.070Z,98805.98
2022-10-29T01:04:17.929Z,98807.54
2022-10-29T01:06:47.285Z,98805.29
2022-10-29T01:09:15.353Z,98806.32
2022-10-29T01:12:31.953Z,98803.52
2022-10-29T01:15:27.159Z,98800.30
2022-10-29T01:18:06.904Z,98796.40
2022-10-29T01:21:08.000Z,98796.03
2022-10-29T01:23:48.401Z,98792.30
2022-10-29T01:26:50.242Z,98795.07
2022-10-29T01:29:48.599Z,98789.73
2022-10-29T01:32:25.004Z,98785.14
2022-10-29T01:35:09.532Z,98781.10
2022-10-29T01:37:55.781Z,98782.24
2022-10-29T01:41:17.324Z,98783.55
2022-10-29T01:43:50.664Z,98778.48
2022-10-29T01:46:24.987Z,98774.00
2022-10-29T01:48:56.894Z,98770.87
2022-10-29T01:51:29.398Z,98771.30
2022-10-29T01:54:00.199Z,98774.82
2022-10-29T01:56:27.979Z,98774.52
2022-10-29T01:58:59.618Z,98774.02
2022-10-29T02:01:39.605Z,98773.58
2022-10-29T02:04:37.393Z,98775.83
2022-10-29T02:07:27.804Z,98773.57
2022-10-29T02:10:08.770Z,98772.05
2022-10-29T02:12:49.338Z,98768.73
2022-10-29T02:15:32.341Z,98766.10
2022-10-29T02:18:05.687Z,98760.46
2022-10-29T02:20:34.611Z,98757.29
2022-10-29T02:23:02.460Z,98758.60
2022-10-29T02:25:30.517Z,98758.56
2022-10-29T02:27:59.630Z,98757.95
2022-10-29T02:30:27.605Z,98757.91
2022-10-29T02:32:55.647Z,98756.82
2022-10-29T02:35:23.842Z,98756.44
2022-10-29T02:37:51.682Z,98755.38
2022-10-29T02:40:19.441Z,98753.80
2022-10-29T02:42:47.183Z,98754.68
2022-10-29T02:45:15.033Z,98757.11
2022-10-29T02:47:42.765Z,98754.17
2022-10-29T02:50:10.790Z,98752.64
2022-10-29T02:52:39.994Z,98753.17
2022-10-29T02:55:08.166Z,98757.38
2022-10-29T02:57:36.004Z,98761.20
2022-10-29T03:00:05.301Z,98761.23
2022-10-29T03:02:33.173Z,98760.40
2022-10-29T03:05:00.959Z,98757.33
2022-10-29T03:07:28.887Z,98760.99
2022-10-29T03:09:56.734Z,98765.50
2022-10-29T03:12:24.873Z,98765.27
2022-10-29T03:14:52.784Z,98766.27
2022-10-29T03:17:20.617Z,98761.52
2022-10-29T03:19:48.421Z,98762.48
2022-10-29T03:22:16.217Z,98761.52
2022-10-29T03:24:44.263Z,98757.77
2022-10-29T03:27:12.100Z,98756.29
2022-10-29T03:29:39.958Z,98753.59
2022-10-29T03:32:07.893Z,98753.33
2022-10-29T03:34:35.694Z,98754.66
2022-10-29T03:37:04.158Z,98754.10
2022-10-29T03:39:32.005Z,98752.35
2022-10-29T03:41:59.783Z,98756.14
2022-10-29T03:44:27.724Z,98753.70
2022-10-29T03:46:55.604Z,98750.75
2022-10-29T03:49:23.510Z,98749.38
2022-10-29T03:51:51.368Z,98753.04
2022-10-29T03:54:19.246Z,98750.62
2022-10-29T03:56:47.156Z,98749.78
2022-10-29T03:59:15.076Z,98752.02
2022-10-29T04:01:43.160Z,98753.58
2022-10-29T04:04:11.301Z,98749.39
2022-10-29T04:06:39.232Z,98742.96
2022-10-29T04:09:07.234Z,98746.55
2022-10-29T04:11:35.233Z,98750.30
2022-10-29T04:14:03.162Z,98753.73
2022-10-29T04:16:31.189Z,98755.21
2022-10-29T04:18:59.387Z,98762.75
2022-10-29T04:23:40.263Z,98762.46
2022-10-29T04:29:54.813Z,98770.50
2022-10-29T04:32:22.785Z,98768.59
2022-10-29T04:34:50.588Z,98768.94
2022-10-29T04:37:18.437Z,98771.39
2022-10-29T04:39:46.397Z,98767.44
2022-10-29T04:42:14.234Z,98766.78
2022-10-29T04:44:42.296Z,98771.96
2022-10-29T04:47:10.203Z,98775.98
2022-10-29T04:49:38.150Z,98777.56
2022-10-29T04:52:06.075Z,98775.42
2022-10-29T04:54:34.044Z,98777.55
2022-10-29T04:57:02.059Z,98777.41
2022-10-29T04:59:29.982Z,98777.55
2022-10-29T05:01:58.049Z,98776.69
2022-10-29T05:04:28.319Z,98773.96
2022-10-29T05:06:56.345Z,98777.80
2022-10-29T05:09:24.255Z,98779.59
2022-10-29T05:11:52.317Z,98779.33
2022-10-29T05:14:20.232Z,98782.69
2022-10-29T05:16:48.106Z,98783.83
2022-10-29T05:19:15.990Z,98787.25
2022-10-29T05:21:43.756Z,98786.01
2022-10-29T05:24:11.506Z,98786.20
2022-10-29T05:26:39.694Z,98788.52
2022-10-29T05:29:09.898Z,98796.30
2022-10-29T05:31:37.634Z,98798.50
2022-10-29T05:34:05.496Z,98798.64
2022-10-29T05:36:33.345Z,98800.27
2022-10-29T05:39:01.159Z,98799.78
2022-10-29T05:41:29.018Z,98800.06
2022-10-29T05:43:57.068Z,98800.35
2022-10-29T05:46:24.936Z,98800.75
2022-10-29T05:48:52.751Z,98800.70
2022-10-29T05:51:20.801Z,98799.89
2022-10-29T05:53:48.982Z,98797.20
2022-10-29T05:56:17.004Z,98792.73
2022-10-29T05:58:44.767Z,98790.97
2022-10-29T06:01:12.784Z,98792.06
2022-10-29T06:03:40.832Z,98790.39
2022-10-29T06:06:09.079Z,98788.50
2022-10-29T06:08:37.429Z,98780.79
2022-10-29T06:11:05.476Z,98777.20
2022-10-29T06:13:33.971Z,98771.09
2022-10-29T06:16:02.063Z,98767.52
2022-10-29T06:18:30.213Z,98766.60
2022-10-29T06:21:00.227Z,98768.11
2022-10-29T06:23:29.169Z,98768.94
2022-10-29T06:26:01.179Z,98765.88
2022-10-29T06:28:33.685Z,98762.27
2022-10-29T06:31:03.342Z,98760.20
2022-10-29T06:33:31.916Z,98759.00
2022-10-29T06:36:01.096Z,98760.73
2022-10-29T06:38:29.017Z,98757.92
2022-10-29T06:40:56.847Z,98753.38
2022-10-29T06:43:24.703Z,98758.63
2022-10-29T06:45:52.524Z,98767.00
2022-10-29T06:48:22.454Z,98768.55
2022-10-29T06:50:51.771Z,98761.35
2022-10-29T06:53:20.377Z,98757.15
2022-10-29T06:55:49.320Z,98759.05
2022-10-29T06:58:19.772Z,98763.42
2022-10-29T07:00:48.651Z,98771.14
2022-10-29T07:03:19.240Z,98774.33
2022-10-29T07:05:47.858Z,98774.50
2022-10-29T07:08:15.685Z,98776.79
2022-10-29T07:10:43.595Z,98780.09
2022-10-29T07:13:11.660Z,98783.54
2022-10-29T07:15:39.469Z,98783.34
2022-10-29T07:18:09.855Z,98780.04
2022-10-29T07:20:40.326Z,98778.61
2022-10-29T07:23:09.250Z,98775.81
2022-10-29T07:25:39.120Z,98774.75
2022-10-29T07:28:12.472Z,98774.56
2022-10-29T07:30:41.019Z,98773.53
2022-10-29T07:33:09.438Z,98772.49
2022-10-29T07:35:38.220Z,98768.66
2022-10-29T07:38:10.748Z,98767.77
2022-10-29T07:40:40.973Z,98762.72
2022-10-29T07:43:09.371Z,98758.19
2022-10-29T07:45:37.526Z,98761.52
2022-10-29T07:48:10.260Z,98764.01
2022-10-29T07:50:38.842Z,98760.73
2022-10-29T07:53:08.057Z,98757.23
2022-10-29T07:55:36.509Z,98759.52
2022-10-29T07:58:07.138Z,98756.02
2022-10-29T08:00:38.232Z,98754.95
2022-10-29T08:03:07.163Z,98755.66
2022-10-29T08:05:35.779Z,98753.21
2022-10-29T08:08:04.334Z,98750.27
2022-10-29T08:10:35.029Z,98751.31
2022-10-29T08:13:05.560Z,98745.55
2022-10-29T08:15:35.253Z,98743.79
2022-10-29T08:18:09.614Z,98741.16
2022-10-29T08:20:37.956Z,98738.16
2022-10-29T08:23:05.767Z,98733.45
2022-10-29T08:25:33.552Z,98732.05
2022-10-29T08:28:03.790Z,98731.65
2022-10-29T08:30:32.168Z,98730.23
2022-10-29T08:33:00.815Z,98728.84
2022-10-29T08:35:29.371Z,98729.20
2022-10-29T08:37:57.843Z,98724.09
2022-10-29T08:40:38.383Z,98724.61
2022-10-29T08:43:25.137Z,98719.33
2022-10-29T08:45:55.354Z,98720.49
2022-10-29T08:48:29.681Z,98721.52
2022-10-29T08:51:20.935Z,98718.16
2022-10-29T08:54:25.064Z,98718.27
2022-10-29T08:56:49.660Z,98715.08
2022-10-29T08:59:23.393Z,98717.33
2022-10-29T09:01:55.159Z,98715.36
2022-10-29T09:04:24.736Z,98709.70
2022-10-29T09:07:06.722Z,98708.73
2022-10-29T09:09:39.683Z,98706.51
2022-10-29T09:12:32.828Z,98706.06
2022-10-29T09:15:10.270Z,98703.02
2022-10-29T09:17:47.423Z,98698.42
2022-10-29T09:20:41.221Z,98699.79
2022-10-29T09:23:40.506Z,98696.73
2022-10-29T09:26:26.576Z,98691.01
2022-10-29T09:29:03.698Z,98687.43
2022-10-29T09:31:43.961Z,98686.14
2022-10-29T09:34:19.113Z,98685.04
2022-10-29T09:36:48.568Z,98689.31
2022-10-29T09:39:31.591Z,98691.66
2022-10-29T09:42:03.267Z,98687.48
2022-10-29T09:44:43.696Z,98680.55
2022-10-29T09:47:39.463Z,98678.17
2022-10-29T09:50:19.723Z,98676.20
2022-10-29T09:52:49.649Z,98672.65
2022-10-29T09:55:25.769Z,98669.27
2022-10-29T09:57:55.920Z,98669.23
2022-10-29T10:00:27.633Z,98670.63
2022-10-29T10:03:04.658Z,98667.02
2022-10-29T10:05:37.212Z,98664.45
2022-10-29T10:08:08.446Z,98666.13
2022-10-29T10:10:48.960Z,98662.77
2022-10-29T10:13:17.822Z,98665.23
2022-10-29T10:15:58.193Z,98660.13
2022-10-29T10:18:38.563Z,98662.86
2022-10-29T10:21:26.828Z,98664.31
2022-10-29T10:23:57.791Z,98667.73
2022-10-29T10:26:31.763Z,98664.29
2022-10-29T10:29:25.253Z,98659.03
2022-10-29T10:31:56.113Z,98657.98
2022-10-29T10:34:24.928Z,98650.05
2022-10-29T10:37:02.557Z,98644.55
2022-10-29T10:39:32.704Z,98641.34
2022-10-29T10:42:04.415Z,98639.86
2022-10-29T10:44:33.795Z,98638.27
2022-10-29T10:47:07.105Z,98636.58
2022-10-29T10:49:39.291Z,98638.09
2022-10-29T10:52:17.486Z,98631.45
2022-10-29T10:55:01.536Z,98623.03
2022-10-29T10:57:39.149Z,98620.80
2022-10-29T11:00:17.146Z,98613.98
2022-10-29T11:02:55.105Z,98610.25
2022-10-29T11:05:29.688Z,98609.70
2022-10-29T11:08:00.632Z,98604.25
2022-10-29T11:10:45.319Z,98599.63
2022-10-29T11:13:18.547Z,98598.55
2022-10-29T11:15:49.282Z,98594.70
2022-10-29T11:18:23.380Z,98595.16
2022-10-29T11:21:26.471Z,98588.06
2022-10-29T11:24:04.565Z,98577.73
2022-10-29T11:26:41.657Z,98575.95
2022-10-29T11:29:19.595Z,98578.63
2022-10-29T11:32:02.686Z,98580.41
2022-10-29T11:34:37.376Z,98573.92
2022-10-29T11:37:29.667Z,98574.53
2022-10-29T11:40:19.838Z,98574.21
2022-10-29T11:42:48.049Z,98576.43
2022-10-29T11:45:22.748Z,98574.19
2022-10-29T11:48:10.855Z,98574.31
2022-10-29T11:50:42.912Z,98569.94
2022-10-29T11:53:21.685Z,98562.46
2022-10-29T11:56:03.863Z,98555.86
2022-10-29T11:58:42.804Z,98555.25
2022-10-29T12:01:34.948Z,98559.23
2022-10-29T12:04:15.917Z,98558.01
2022-10-29T12:07:05.047Z,98553.87
2022-10-29T12:10:18.713Z,98548.39
2022-10-29T12:12:59.616Z,98549.58
2022-10-29T12:15:36.256Z,98546.44
2022-10-29T12:18:19.172Z,98542.56
2022-10-29T12:21:16.385Z,98541.25
2022-10-29T12:23:56.464Z,98541.17
2022-10-29T12:26:46.419Z,98537.73
2022-10-29T12:29:27.340Z,98533.80
2022-10-29T12:32:17.880Z,98528.70
2022-10-29T12:35:03.055Z,98527.52
2022-10-29T12:38:03.393Z,98527.14
2022-10-29T12:40:35.141Z,98525.84
2022-10-29T12:43:10.488Z,98527.05
2022-10-29T12:46:14.832Z,98527.22
2022-10-29T12:48:53.996Z,98530.33
2022-10-29T12:52:00.914Z,98528.70
2022-10-29T12:54:38.742Z,98526.61
2022-10-29T12:57:12.617Z,98522.09
2022-10-29T12:59:42.755Z,98512.27
2022-10-29T13:02:26.344Z,98504.19
2022-10-29T13:05:07.083Z,98499.94
2022-10-29T13:07:36.960Z,98499.92
2022-10-29T13:10:23.621Z,98499.36
2022-10-29T13:13:13.405Z,98501.43
2022-10-29T13:15:47.136Z,98498.27
2022-10-29T13:18:17.815Z,98495.02
2022-10-29T13:20:51.935Z,98492.83
2022-10-29T13:23:22.814Z,98487.42
2022-10-29T13:26:03.087Z,98480.83
2022-10-29T13:28:30.776Z,98478.62
2022-10-29T13:31:01.582Z,98477.12
2022-10-29T13:33:29.486Z,98473.35
2022-10-29T13:35:57.419Z,98475.39
2022-10-29T13:39:05.953Z,98469.40
2022-10-29T13:41:42.843Z,98465.21
2022-10-29T13:44:23.097Z,98467.38
2022-10-29T13:47:21.785Z,98467.60
2022-10-29T13:49:51.317Z,98466.98
2022-10-29T13:52:23.990Z,98466.86
2022-10-29T13:54:57.773Z,98471.08
2022-10-29T13:57:34.291Z,98470.52
2022-10-29T14:00:15.997Z,98474.52
2022-10-29T14:02:48.613Z,98473.07
2022-10-29T14:05:32.045Z,98468.64
2022-10-29T14:08:20.776Z,98465.27
2022-10-29T14:10:53.428Z,98461.62
2022-10-29T14:13:31.290Z,98460.45
2022-10-29T14:16:02.509Z,98456.66
2022-10-29T14:18:33.040Z,98456.56
2022-10-29T14:21:02.468Z,98452.77
2022-10-29T14:23:31.898Z,98453.17
2022-10-29T14:26:03.931Z,98448.63
2022-10-29T14:28:33.709Z,98446.03
2022-10-29T14:31:03.823Z,98448.37
2022-10-29T14:33:36.798Z,98446.33
2022-10-29T14:36:13.496Z,98445.00
2022-10-29T14:38:57.250Z,98443.51
2022-10-29T14:41:27.974Z,98443.98
2022-10-29T14:44:09.185Z,98445.13
2022-10-29T14:46:38.923Z,98440.48
2022-10-29T14:49:23.507Z,98440.95
2022-10-29T14:52:01.315Z,98442.36
2022-10-29T14:54:34.134Z,98443.08
2022-10-29T14:57:07.921Z,98449.77
2022-10-29T14:59:36.377Z,98453.21
2022-10-29T15:02:36.212Z,98459.45
2022-10-29T15:05:07.083Z,98467.80
2022-10-29T15:07:36.494Z,98471.59
2022-10-29T15:10:24.783Z,98469.39
2022-10-29T15:12:53.965Z,98470.55
2022-10-29T15:15:28.418Z,98470.34
2022-10-29T15:18:06.239Z,98474.49
2022-10-29T15:20:46.686Z,98482.02
2022-10-29T15:23:23.852Z,98479.35
2022-10-29T15:25:58.950Z,98474.08
2022-10-29T15:28:29.763Z,98476.58
2022-10-29T15:31:03.257Z,98477.88
2022-10-29T15:33:32.116Z,98478.28
2022-10-29T15:36:02.151Z,98477.80
2022-10-29T15:38:30.042Z,98479.61
2022-10-29T15:41:19.950Z,98485.78
2022-10-29T15:43:54.956Z,98493.70
2022-10-29T15:46:28.816Z,98495.79
2022-10-29T15:48:56.702Z,98495.23
2022-10-29T15:51:28.606Z,98496.95
2022-10-29T15:53:59.143Z,98494.92
2022-10-29T15:56:28.334Z,98495.70
2022-10-29T15:58:58.207Z,98497.02
2022-10-29T16:01:26.155Z,98494.67
2022-10-29T16:03:54.274Z,98497.94
2022-10-29T16:06:22.178Z,98498.05
2022-10-29T16:08:55.561Z,98496.40
2022-10-29T16:11:23.941Z,98498.62
2022-10-29T16:13:55.272Z,98503.48
2022-10-29T16:16:25.678Z,98504.16
2022-10-29T16:18:54.674Z,98505.67
2022-10-29T16:21:24.907Z,98508.23
2022-10-29T16:23:53.104Z,98508.49
2022-10-29T16:26:25.708Z,98511.71
2022-10-29T16:28:53.703Z,98514.05
2022-10-29T16:31:26.807Z,98522.16
2022-10-29T16:33:58.649Z,98519.59
2022-10-29T16:36:26.929Z,98511.19
2022-10-29T16:38:55.001Z,98512.61
2022-10-29T16:41:22.900Z,98516.33
2022-10-29T16:43:50.991Z,98517.04
2022-10-29T16:46:18.890Z,98516.00
2022-10-29T16:48:46.862Z,98525.84
2022-10-29T16:51:14.879Z,98533.37
2022-10-29T16:53:42.838Z,98543.05
2022-10-29T16:56:10.601Z,98541.16
2022-10-29T16:58:38.410Z,98531.91
2022-10-29T17:01:10.416Z,98528.27
2022-10-29T17:03:41.676Z,98524.66
2022-10-29T17:06:11.127Z,98518.43
2022-10-29T17:08:39.186Z,98514.09
2022-10-29T17:11:10.162Z,98511.69
2022-10-29T17:13:38.849Z,98511.73
2022-10-29T17:16:14.833Z,98511.04
2022-10-29T17:18:42.715Z,98512.09
2022-10-29T17:21:11.435Z,98511.75
2022-10-29T17:23:39.386Z,98517.70
2022-10-29T17:26:07.259Z,98511.92
2022-10-29T17:28:36.683Z,98513.50
2022-10-29T17:31:06.875Z,98514.34
2022-10-29T17:33:35.354Z,98512.41
2022-10-29T17:36:13.250Z,98506.60
2022-10-29T17:38:41.836Z,98502.56
2022-10-29T17:41:10.000Z,98499.95
2022-10-29T17:43:38.173Z,98496.29
2022-10-29T17:46:06.022Z,98490.86
2022-10-29T17:48:37.019Z,98492.27
2022-10-29T17:51:04.933Z,98489.19
2022-10-29T17:53:32.771Z,98488.38
2022-10-29T17:56:01.331Z,98484.41
2022-10-29T17:58:31.238Z,98484.82
2022-10-29T18:01:06.985Z,98484.02
2022-10-29T18:03:34.969Z,98473.25
2022-10-29T18:06:06.168Z,98465.65
2022-10-29T18:08:36.685Z,98461.55
2022-10-29T18:11:18.921Z,98466.32
2022-10-29T18:13:48.141Z,98469.31
2022-10-29T18:16:18.746Z,98475.44
2022-10-29T18:19:00.889Z,98481.05
2022-10-29T18:21:30.935Z,98480.54
2022-10-29T18:23:59.700Z,98485.44
2022-10-29T18:26:34.077Z,98484.55
2022-10-29T18:29:07.803Z,98481.24
2022-10-29T18:31:37.633Z,98482.65
2022-10-29T18:34:07.854Z,98482.13
2022-10-29T18:36:36.416Z,98478.30
2022-10-29T18:39:06.350Z,98477.61
2022-10-29T18:41:35.392Z,98473.08
2022-10-29T18:44:03.316Z,98473.08
2022-10-29T18:46:31.087Z,98475.20
2022-10-29T18:49:00.136Z,98474.71
2022-10-29T18:51:30.537Z,98473.52
2022-10-29T18:53:59.354Z,98475.67
2022-10-29T18:56:28.526Z,98475.17
2022-10-29T18:58:58.266Z,98476.78
2022-10-29T19:01:30.521Z,98478.23
2022-10-29T19:04:01.060Z,98475.50
2022-10-29T19:06:31.660Z,98466.48
2022-10-29T19:09:01.369Z,98464.94
2022-10-29T19:11:29.815Z,98467.57
2022-10-29T19:14:00.262Z,98464.27
2022-10-29T19:16:29.388Z,98460.10
2022-10-29T19:19:03.191Z,98461.67
2022-10-29T19:21:34.515Z,98455.58
2022-10-29T19:24:02.769Z,98446.84
2022-10-29T19:26:33.641Z,98439.69
2022-10-29T19:29:04.118Z,98437.63
2022-10-29T19:31:34.172Z,98438.48
2022-10-29T19:34:06.323Z,98437.61
2022-10-29T19:36:36.434Z,98438.33
2022-10-29T19:39:04.954Z,98447.23
2022-10-29T19:41:33.280Z,98446.20
2022-10-29T19:44:02.374Z,98447.10
2022-10-29T19:46:30.376Z,98445.70
2022-10-29T19:48:59.168Z,98444.67
2022-10-29T19:51:27.140Z,98441.03
2022-10-29T19:53:57.368Z,98442.13
2022-10-29T19:56:25.146Z,98442.31
2022-10-29T19:58:53.076Z,98446.02
2022-10-29T20:01:21.124Z,98451.09
2022-10-29T20:03:49.094Z,98453.54
2022-10-29T20:06:18.020Z,98450.05
2022-10-29T20:08:46.324Z,98454.07
2022-10-29T20:11:14.303Z,98456.17
2022-10-29T20:13:42.253Z,98455.80
2022-10-29T20:16:15.382Z,98457.90
2022-10-29T20:18:43.760Z,98458.77
2022-10-29T20:21:12.667Z,98459.13
2022-10-29T20:23:42.297Z,98460.35
2022-10-29T20:26:10.924Z,98463.30
2022-10-29T20:28:39.473Z,98456.50
2022-10-29T20:31:10.516Z,98452.66
2022-10-29T20:33:38.703Z,98454.23
2022-10-29T20:36:06.723Z,98450.05
2022-10-29T20:38:34.849Z,98451.62
2022-10-29T20:41:02.614Z,98455.13
2022-10-29T20:43:30.531Z,98457.75
2022-10-29T20:46:00.917Z,98458.45
2022-10-29T20:48:30.037Z,98460.38
2022-10-29T20:50:57.997Z,98458.81
2022-10-29T20:53:25.837Z,98460.22
2022-10-29T20:55:54.317Z,98460.05
2022-10-29T20:58:22.583Z,98459.53
2022-10-29T21:00:50.505Z,98458.11
2022-10-29T21:03:18.781Z,98459.15
2022-10-29T21:05:46.582Z,98454.45
2022-10-29T21:08:14.397Z,98456.02
2022-10-29T21:10:42.228Z,98451.84
2022-10-29T21:13:10.252Z,98450.63
2022-10-29T21:15:38.158Z,98453.23
2022-10-29T21:18:06.058Z,98450.61
2022-10-29T21:20:33.852Z,98451.14
2022-10-29T21:23:01.863Z,98448.36
2022-10-29T21:25:29.649Z,98450.27
2022-10-29T21:27:57.491Z,98448.70
2022-10-29T21:30:25.640Z,98444.70
2022-10-29T21:32:55.131Z,98441.21
2022-10-29T21:35:22.892Z,98444.02
2022-10-29T21:37:50.668Z,98444.01
2022-10-29T21:40:18.471Z,98443.14
2022-10-29T21:42:46.186Z,98442.78
2022-10-29T21:45:14.067Z,98439.80
2022-10-29T21:47:41.850Z,98439.64
2022-10-29T21:50:10.543Z,98444.34
2022-10-29T21:52:38.385Z,98442.44
2022-10-29T21:55:07.306Z,98437.90
2022-10-29T21:57:35.102Z,98438.08
2022-10-29T22:00:05.274Z,98432.51
2022-10-29T22:02:33.114Z,98426.58
2022-10-29T22:05:01.140Z,98424.30
2022-10-29T22:07:29.102Z,98422.91
2022-10-29T22:09:56.969Z,98421.34
2022-10-29T22:12:25.070Z,98419.59
2022-10-29T22:14:52.971Z,98425.67
2022-10-29T22:17:20.811Z,98429.49
2022-10-29T22:19:48.693Z,98426.02
2022-10-29T22:22:16.552Z,98427.41
2022-10-29T22:24:44.176Z,98426.02
2022-10-29T22:27:12.061Z,98421.83
2022-10-29T22:29:39.930Z,98418.16
2022-10-29T22:32:08.075Z,98418.33
2022-10-29T22:34:35.779Z,98419.38
2022-10-29T22:37:03.616Z,98417.29
2022-10-29T22:39:31.457Z,98413.46
2022-10-29T22:41:59.212Z,98408.58
2022-10-29T22:44:26.964Z,98409.80
2022-10-29T22:46:54.709Z,98414.33
2022-10-29T22:49:22.427Z,98416.59
2022-10-29T22:51:50.337Z,98415.38
2022-10-29T22:54:18.159Z,98414.34
2022-10-29T22:56:45.934Z,98416.60
2022-10-29T22:59:13.845Z,98409.45
2022-10-29T23:01:44.256Z,98411.00
2022-10-29T23:04:13.888Z,98412.73
2022-10-29T23:06:41.702Z,98412.55
2022-10-29T23:09:09.592Z,98408.89
2022-10-29T23:11:39.463Z,98404.52
2022-10-29T23:14:07.383Z,98399.45
2022-10-29T23:16:36.089Z,98399.95
2022-10-29T23:19:05.719Z,98395.77
2022-10-29T23:21:33.826Z,98393.86
2022-10-29T23:24:01.805Z,98389.14
2022-10-29T23:26:29.741Z,98386.19
2022-10-29T23:28:57.574Z,98388.62
2022-10-29T23:31:27.974Z,98384.96
2022-10-29T23:33:57.342Z,98382.02
2022-10-29T23:36:27.637Z,98381.13
2022-10-29T23:39:00.787Z,98377.30
2022-10-29T23:41:30.468Z,98370.70
2022-10-29T23:43:58.424Z,98367.58
2022-10-29T23:46:26.345Z,98370.20
2022-10-29T23:48:54.264Z,98368.80
2022-10-29T23:51:22.437Z,98368.27
2022-10-29T23:53:54.702Z,98371.39
2022-10-29T23:56:26.017Z,98371.56
2022-10-29T23:58:54.067Z,98371.73
